Time;durP1;ratioP1;P1;durP2;ratioP2;P2;SDS_P1;SDS_P2;PMS_P1;PMS_P2;Temp;Humidity;BMP_temperature;BMP_pressure;BME280_temperature;BME280_humidity;BME280_pressure;Samples;Min_cycle;Max_cycle;Signal;HPM_P1;HPM_P2
2023/02/02 19:43:31;;;;;;;11.40;5.80;;;;;;;0.91;97.45;100444.64;104016;1298;601028;-58
2023/02/02 19:46:20;;;;;;;8.10;6.50;;;;;;;0.79;97.44;100453.98;106791;1263;79984;-63
2023/02/02 19:49:07;;;;;;;11.30;7.70;;;;;;;0.75;97.46;100459.08;106865;1262;80627;-53
2023/02/02 19:51:47;;;;;;;9.40;6.00;;;;;;;0.75;97.35;100459.83;106808;1262;97723;-54
2023/02/02 19:54:32;;;;;;;7.40;5.10;;;;;;;0.72;97.42;100468.88;106850;1262;89266;-55
2023/02/02 19:57:20;;;;;;;7.50;4.90;;;;;;;0.73;97.55;100474.00;106509;1261;497804;-54
2023/02/02 19:59:56;;;;;;;9.00;5.80;;;;;;;0.73;97.44;100476.95;106965;1265;82219;-55
2023/02/02 20:02:50;;;;;;;6.90;3.90;;;;;;;0.78;97.34;100483.81;106962;1261;81144;-55
2023/02/02 20:05:33;;;;;;;5.00;3.20;;;;;;;0.73;97.41;100492.38;106967;1260;97452;-57
2023/02/02 20:08:24;;;;;;;4.60;3.40;;;;;;;0.74;97.29;100499.80;107189;1262;89028;-56
2023/02/02 20:11:16;;;;;;;7.90;4.00;;;;;;;0.82;97.53;100505.09;107155;1261;96003;-57
2023/02/02 20:13:56;;;;;;;6.50;3.90;;;;;;;0.96;97.53;100515.89;107194;1263;81145;-55
2023/02/02 20:16:45;;;;;;;5.30;3.40;;;;;;;1.02;97.26;100523.29;107154;1259;85312;-57
2023/02/02 20:19:34;;;;;;;7.00;3.60;;;;;;;1.09;97.31;100528.89;107238;1261;97471;-57
2023/02/02 20:22:27;;;;;;;10.20;4.10;;;;;;;1.21;97.40;100532.41;107208;1261;88523;-58
2023/02/02 20:25:08;;;;;;;7.00;3.30;;;;;;;1.28;97.13;100535.12;107195;1259;94277;-60
2023/02/02 20:27:46;;;;;;;7.80;3.60;;;;;;;1.31;97.20;100541.11;107207;1261;80181;-59
2023/02/02 20:30:29;;;;;;;6.60;3.10;;;;;;;1.33;97.18;100544.65;107159;1260;81304;-60
2023/02/02 20:33:26;;;;;;;7.00;4.10;;;;;;;1.34;97.16;100554.88;107207;1262;97903;-58
2023/02/02 20:36:15;;;;;;;7.10;3.80;;;;;;;1.39;96.84;100559.55;107158;1263;89331;-58
2023/02/02 20:38:56;;;;;;;6.30;3.50;;;;;;;1.34;96.47;100560.17;107163;1261;94325;-58
2023/02/02 20:41:31;;;;;;;5.70;3.20;;;;;;;1.22;96.37;100558.73;107124;1259;81030;-58
2023/02/02 20:44:06;;;;;;;5.50;2.90;;;;;;;1.10;96.21;100564.30;107123;1259;81965;-59
2023/02/02 20:46:44;;;;;;;4.90;3.60;;;;;;;0.96;96.04;100570.63;107082;1260;94826;-59
2023/02/02 20:49:25;;;;;;;7.00;3.80;;;;;;;0.89;95.82;100572.58;107357;1256;88384;-57
2023/02/02 20:52:09;;;;;;;6.10;4.10;;;;;;;0.83;95.81;100578.37;107373;1257;94088;-62
2023/02/02 20:54:52;;;;;;;7.00;3.90;;;;;;;0.74;95.77;100582.50;107410;1256;80745;-57
2023/02/02 20:57:33;;;;;;;;;;;;;;;0.64;95.68;100590.79;107368;1259;82000;-58
2023/02/02 21:00:11;;;;;;;5.80;4.10;;;;;;;0.63;95.79;100600.66;107371;1257;97941;-60
2023/02/02 21:02:55;;;;;;;8.00;4.50;;;;;;;0.56;95.73;100599.90;107359;1256;88305;-59
2023/02/02 21:05:35;;;;;;;8.70;4.60;;;;;;;0.56;95.88;100599.70;107380;1258;93482;-60
2023/02/02 21:08:18;;;;;;;6.30;3.80;;;;;;;0.57;95.80;100606.72;107417;1256;80283;-57
2023/02/02 21:11:06;;;;;;;6.80;4.50;;;;;;;0.53;95.75;100610.60;107346;1256;83459;-57
2023/02/02 21:13:41;;;;;;;7.50;4.20;;;;;;;0.44;95.77;100609.88;107350;1256;98270;-58
2023/02/02 21:16:21;;;;;;;6.80;4.60;;;;;;;0.44;95.80;100614.69;107372;1256;89046;-59
2023/02/02 21:19:05;;;;;;;7.80;4.70;;;;;;;0.51;95.88;100619.91;107387;1257;94966;-56
2023/02/02 21:21:43;;;;;;;6.30;4.70;;;;;;;0.63;95.95;100623.13;107311;1256;78415;-56
2023/02/02 21:24:23;;;;;;;8.70;5.20;;;;;;;0.67;95.92;100629.20;107376;1259;81950;-58
2023/02/02 21:27:03;;;;;;;8.40;4.70;;;;;;;0.68;95.93;100638.86;107354;1256;97299;-59
2023/02/02 21:29:38;;;;;;;8.80;5.30;;;;;;;0.73;95.88;100644.85;107376;1257;87708;-56
2023/02/02 21:32:18;;;;;;;7.30;5.30;;;;;;;0.77;95.85;100645.40;107316;1259;93708;-56
2023/02/02 21:35:05;;;;;;;6.50;4.50;;;;;;;0.71;95.78;100652.99;107350;1256;80130;-58
2023/02/02 21:37:49;;;;;;;7.00;4.60;;;;;;;0.69;95.64;100656.52;107347;1256;82219;-58
2023/02/02 21:40:29;;;;;;;6.50;4.40;;;;;;;0.64;95.58;100661.52;107366;1256;97773;-57
2023/02/02 21:43:14;;;;;;;8.10;4.20;;;;;;;0.59;95.47;100667.88;107359;1256;89570;-56
2023/02/02 21:45:56;;;;;;;6.80;5.30;;;;;;;0.52;95.44;100670.70;107326;1256;94981;-59
2023/02/02 21:48:41;;;;;;;6.10;4.50;;;;;;;0.45;95.41;100673.77;107373;1256;79659;-58
2023/02/02 21:51:29;;;;;;;7.60;4.80;;;;;;;0.36;95.32;100670.02;107397;1256;80547;-57
2023/02/02 21:54:20;;;;;;;6.50;4.70;;;;;;;0.30;95.32;100675.68;107403;1259;97197;-59
2023/02/02 21:57:02;;;;;;;6.70;4.60;;;;;;;0.23;95.29;100676.03;107341;1259;87895;-60
2023/02/02 21:59:40;;;;;;;9.60;5.10;;;;;;;0.16;95.40;100680.27;107332;1259;94232;-60
2023/02/02 22:02:39;;;;;;;10.40;5.30;;;;;;;0.07;95.32;100682.42;107339;1256;80192;-55
2023/02/02 22:05:26;;;;;;;9.70;5.90;;;;;;;0.03;95.34;100693.16;107353;1256;81816;-58
2023/02/02 22:08:08;;;;;;;7.80;5.20;;;;;;;-0.07;95.34;100691.20;107307;1255;97836;-57
2023/02/02 22:10:45;;;;;;;9.60;5.80;;;;;;;-0.12;95.28;100689.53;107336;1259;87550;-52
2023/02/02 22:13:23;;;;;;;10.50;6.50;;;;;;;-0.18;95.31;100696.52;107317;1256;95348;-56
2023/02/02 22:16:04;;;;;;;8.20;5.30;;;;;;;-0.23;95.49;100701.79;107290;1255;81013;-56
2023/02/02 22:18:47;;;;;;;8.20;5.50;;;;;;;-0.18;95.44;100703.92;107365;1256;82742;-58
2023/02/02 22:21:23;;;;;;;7.60;5.40;;;;;;;-0.19;95.30;100709.33;107296;1259;97096;-58
2023/02/02 22:24:11;;;;;;;7.60;5.80;;;;;;;-0.21;95.43;100713.16;107337;1256;87530;-55
2023/02/02 22:26:58;;;;;;;8.80;4.70;;;;;;;-0.22;95.43;100718.41;107290;1259;95337;-56
2023/02/02 22:29:44;;;;;;;7.90;4.90;;;;;;;-0.28;95.50;100716.91;107331;1257;80200;-55
2023/02/02 22:32:26;;;;;;;8.20;5.20;;;;;;;-0.21;95.66;100718.99;107316;1256;83429;-56
2023/02/02 22:35:08;;;;;;;10.40;4.90;;;;;;;-0.15;95.77;100721.59;107289;1257;98361;-58
2023/02/02 22:37:45;;;;;;;7.80;4.40;;;;;;;-0.20;95.57;100714.72;107351;1256;87266;-58
2023/02/02 22:40:23;;;;;;;8.20;4.30;;;;;;;-0.26;95.62;100715.84;107362;1259;93621;-55
2023/02/02 22:43:03;;;;;;;8.60;4.80;;;;;;;-0.26;95.57;100722.20;107347;1256;79734;-56
2023/02/02 22:45:39;;;;;;;6.20;4.10;;;;;;;-0.30;95.58;100732.42;107321;1256;81579;-58
2023/02/02 22:48:16;;;;;;;8.40;4.10;;;;;;;-0.28;95.60;100735.99;107370;1259;97786;-57
2023/02/02 22:50:54;;;;;;;6.80;4.40;;;;;;;-0.28;95.67;100743.58;107294;1256;88921;-60
2023/02/02 22:53:35;;;;;;;9.00;4.00;;;;;;;-0.25;95.69;100747.29;107323;1257;94352;-56
2023/02/02 22:56:20;;;;;;;5.80;3.60;;;;;;;-0.19;95.83;100747.89;107698;1256;80530;-55
2023/02/02 22:59:00;;;;;;;6.80;3.70;;;;;;;-0.14;95.84;100751.73;107733;1253;81538;-59
2023/02/02 23:01:35;;;;;;;6.10;3.90;;;;;;;-0.01;96.01;100756.46;107749;1251;97469;-57
2023/02/02 23:04:11;;;;;;;8.60;4.50;;;;;;;0.05;96.06;100757.42;107719;1253;88895;-56
2023/02/02 23:06:49;;;;;;;6.00;3.90;;;;;;;0.07;96.07;100761.85;107729;1256;95148;-56
2023/02/02 23:09:33;;;;;;;5.20;3.90;;;;;;;0.14;96.19;100765.29;107717;1250;80583;-57
2023/02/02 23:12:08;;;;;;;4.60;3.10;;;;;;;0.24;96.14;100770.31;107720;1250;82772;-55
2023/02/02 23:14:44;;;;;;;5.80;3.90;;;;;;;0.32;96.12;100783.52;107792;1250;97579;-57
2023/02/02 23:17:28;;;;;;;7.10;4.30;;;;;;;0.35;96.10;100784.08;107771;1253;88736;-58
2023/02/02 23:20:08;;;;;;;7.30;4.30;;;;;;;0.40;96.05;100787.31;107735;1250;94477;-55
2023/02/02 23:22:47;;;;;;;6.10;4.00;;;;;;;0.39;96.24;100798.44;107750;1250;82404;-56
2023/02/02 23:25:26;;;;;;;7.30;5.10;;;;;;;0.43;96.27;100802.48;107762;1250;83289;-58
2023/02/02 23:28:04;;;;;;;8.40;4.60;;;;;;;0.50;96.10;100803.10;107729;1251;97838;-60
2023/02/02 23:30:43;;;;;;;5.70;4.00;;;;;;;0.57;96.21;100800.95;107742;1251;87766;-58
2023/02/02 23:33:24;;;;;;;7.70;4.10;;;;;;;0.65;96.10;100800.34;107788;1250;94847;-57
2023/02/02 23:36:08;;;;;;;6.80;4.70;;;;;;;0.64;96.09;100802.36;107678;1250;80950;-58
2023/02/02 23:38:46;;;;;;;7.00;4.10;;;;;;;0.68;96.06;100804.56;107760;1250;82681;-59
2023/02/02 23:41:31;;;;;;;6.80;4.10;;;;;;;0.71;95.94;100809.11;107696;1256;98858;-59
2023/02/02 23:44:08;;;;;;;8.40;4.60;;;;;;;0.67;96.02;100814.20;107737;1250;89251;-58
2023/02/02 23:46:44;;;;;;;7.70;4.90;;;;;;;0.74;95.97;100816.98;107694;1255;93528;-58
2023/02/02 23:49:24;;;;;;;6.00;4.00;;;;;;;0.74;95.81;100820.94;107728;1251;81182;-56
2023/02/02 23:52:06;;;;;;;4.70;3.30;;;;;;;0.74;95.65;100815.76;107695;1253;83058;-57
2023/02/02 23:54:46;;;;;;;7.60;3.40;;;;;;;0.78;95.57;100818.63;107749;1250;96704;-57
2023/02/02 23:57:21;;;;;;;6.00;3.50;;;;;;;0.71;95.46;100824.50;107712;1250;87853;-57
2023/02/02 23:59:56;;;;;;;6.20;3.40;;;;;;;0.65;95.32;100823.76;107786;1250;93810;-58
